Time;durP1;ratioP1;P1;durP2;ratioP2;P2;SDS_P1;SDS_P2;PMS_P1;PMS_P2;Temp;Humidity;BMP_temperature;BMP_pressure;BME280_temperature;BME280_humidity;BME280_pressure;Samples;Min_cycle;Max_cycle;Signal;HPM_P1;HPM_P2
2023/03/28 00:01:28;;;;;;;3.45;1.20;;;15.20;52.00;;;;;;5051483;28;20697;-66
2023/03/28 00:03:55;;;;;;;1.80;1.00;;;15.20;52.00;;;;;;5052057;28;20194;-66
2023/03/28 00:06:23;;;;;;;2.42;1.40;;;15.20;52.00;;;;;;5051620;28;20171;-66
2023/03/28 00:08:49;;;;;;;2.30;1.00;;;15.10;52.00;;;;;;5051780;28;20592;-66
2023/03/28 00:11:20;;;;;;;2.03;1.30;;;15.10;52.00;;;;;;5052099;28;20321;-64
2023/03/28 00:13:52;;;;;;;2.33;1.20;;;15.20;52.10;;;;;;5051195;28;20191;-64
2023/03/28 00:16:18;;;;;;;2.33;1.20;;;15.10;52.00;;;;;;5053596;28;20302;-65
2023/03/28 00:18:43;;;;;;;1.40;1.10;;;15.10;52.00;;;;;;5055753;28;20270;-65
2023/03/28 00:21:28;;;;;;;1.88;1.05;;;15.10;52.10;;;;;;5054920;28;20227;-64
2023/03/28 00:23:55;;;;;;;1.92;0.90;;;15.10;52.10;;;;;;5055573;28;20178;-64
2023/03/28 00:26:23;;;;;;;1.63;1.15;;;15.10;52.10;;;;;;5055716;28;20186;-64
2023/03/28 00:28:49;;;;;;;0.82;0.82;;;15.10;52.10;;;;;;5054947;28;20185;-67
2023/03/28 00:31:14;;;;;;;1.95;1.27;;;15.10;52.20;;;;;;5055789;28;20262;-66
2023/03/28 00:33:40;;;;;;;3.30;1.30;;;15.00;52.70;;;;;;5055822;28;20658;-66
2023/03/28 00:36:09;;;;;;;2.35;1.40;;;15.10;52.20;;;;;;5054607;28;20214;-65
2023/03/28 00:38:34;;;;;;;2.35;1.30;;;15.10;52.20;;;;;;5055563;28;20195;-65
2023/03/28 00:41:00;;;;;;;2.72;1.27;;;15.00;52.10;;;;;;5055079;28;20175;-65
2023/03/28 00:43:40;;;;;;;2.78;1.05;;;15.00;52.10;;;;;;5054607;28;20197;-65
2023/03/28 00:46:12;;;;;;;1.83;1.23;;;15.00;52.10;;;;;;5055274;28;20175;-65
2023/03/28 00:48:39;;;;;;;3.15;1.27;;;15.00;52.20;;;;;;5053568;28;20179;-65
2023/03/28 00:51:05;;;;;;;2.08;1.45;;;15.00;52.10;;;;;;5053817;28;20180;-64
2023/03/28 00:53:32;;;;;;;2.95;1.40;;;15.00;52.20;;;;;;5054008;28;20544;-65
2023/03/28 00:56:05;;;;;;;2.28;1.23;;;15.00;52.20;;;;;;5036423;28;20272;-65
2023/03/28 00:58:32;;;;;;;1.70;1.05;;;15.00;52.20;;;;;;5055547;28;20178;-65
2023/03/28 01:00:58;;;;;;;2.08;1.33;;;15.00;52.20;;;;;;5054837;28;20254;-66
2023/03/28 01:03:26;;;;;;;2.15;1.27;;;14.90;52.20;;;;;;5053134;28;20254;-65
2023/03/28 01:05:52;;;;;;;1.60;1.10;;;15.00;52.20;;;;;;5037182;28;20541;-65
2023/03/28 01:08:20;;;;;;;2.17;1.05;;;14.90;52.20;;;;;;5053671;28;20226;-65
2023/03/28 01:10:45;;;;;;;1.20;1.00;;;14.90;52.20;;;;;;5052582;28;20552;-64
2023/03/28 01:13:12;;;;;;;3.17;1.35;;;14.90;52.20;;;;;;5053530;28;20167;-65
2023/03/28 01:15:37;;;;;;;2.25;1.25;;;14.90;52.20;;;;;;5053515;28;20218;-64
2023/03/28 01:18:09;;;;;;;2.10;1.10;;;14.90;52.30;;;;;;5052464;28;20642;-63
2023/03/28 01:21:05;;;;;;;2.53;0.93;;;14.90;52.30;;;;;;5054229;28;20234;-64
2023/03/28 01:23:39;;;;;;;1.45;1.23;;;14.90;52.30;;;;;;5054819;28;20187;-64
2023/03/28 01:26:38;;;;;;;1.27;1.10;;;14.90;52.20;;;;;;5054293;28;20593;-64
2023/03/28 01:29:22;;;;;;;2.47;0.98;;;14.90;52.20;;;;;;5054221;28;20183;-66
2023/03/28 01:32:02;;;;;;;2.08;1.10;;;14.80;52.80;;;;;;5053532;28;20221;-66
2023/03/28 01:34:40;;;;;;;2.55;0.90;;;14.90;52.30;;;;;;5054564;28;20240;-66
2023/03/28 01:37:14;;;;;;;3.45;1.20;;;14.80;52.30;;;;;;5054072;28;20228;-65
2023/03/28 01:40:15;;;;;;;1.92;1.13;;;14.80;52.20;;;;;;5053646;28;20174;-64
2023/03/28 01:43:13;;;;;;;2.22;1.33;;;14.80;52.20;;;;;;5045968;28;20190;-66
2023/03/28 01:45:57;;;;;;;3.88;1.40;;;14.80;52.20;;;;;;5037360;28;20238;-65
2023/03/28 01:49:00;;;;;;;1.42;1.08;;;14.80;52.20;;;;;;5054322;28;20175;-65
2023/03/28 01:52:03;;;;;;;1.63;1.08;;;14.80;52.30;;;;;;5054132;28;20518;-64
2023/03/28 01:54:36;;;;;;;2.47;1.65;;;14.80;52.20;;;;;;5044053;28;20271;-64
2023/03/28 01:57:09;;;;;;;3.28;1.17;;;14.80;52.20;;;;;;5036807;28;20289;-65
2023/03/28 01:59:42;;;;;;;2.85;1.27;;;14.70;52.20;;;;;;5053404;28;20175;-66
2023/03/28 02:02:31;;;;;;;1.88;1.10;;;14.80;52.20;;;;;;5054019;28;20175;-65
2023/03/28 02:04:57;;;;;;;0.98;0.90;;;14.80;52.30;;;;;;5052509;28;20175;-65
2023/03/28 02:07:23;;;;;;;2.35;1.00;;;14.80;52.30;;;;;;5035509;28;20199;-65
2023/03/28 02:09:49;;;;;;;1.83;1.10;;;14.70;52.30;;;;;;5052434;28;20260;-64
2023/03/28 02:12:27;;;;;;;3.78;0.95;;;14.70;52.30;;;;;;5052411;28;20172;-64
2023/03/28 02:14:53;;;;;;;2.15;0.98;;;14.70;52.30;;;;;;5051265;28;20210;-65
2023/03/28 02:17:18;;;;;;;2.10;1.02;;;14.70;52.30;;;;;;5053725;28;20178;-64
2023/03/28 02:19:57;;;;;;;2.08;1.33;;;14.70;52.30;;;;;;5051747;28;20226;-64
2023/03/28 02:22:24;;;;;;;1.85;0.90;;;14.70;52.40;;;;;;5053312;28;20691;-63
2023/03/28 02:24:50;;;;;;;2.78;1.30;;;14.70;52.40;;;;;;5052150;28;20201;-64
2023/03/28 02:27:21;;;;;;;1.17;1.00;;;14.70;52.40;;;;;;5051432;28;20186;-65
2023/03/28 02:29:48;;;;;;;3.55;1.15;;;14.70;52.40;;;;;;5036008;28;20174;-65
2023/03/28 02:32:14;;;;;;;2.80;1.05;;;14.60;52.40;;;;;;5053169;28;20179;-66
2023/03/28 02:34:44;;;;;;;1.55;1.10;;;14.60;52.40;;;;;;5052198;28;20207;-66
2023/03/28 02:37:18;;;;;;;1.98;1.10;;;14.60;52.40;;;;;;5035610;28;20184;-65
2023/03/28 02:39:55;;;;;;;1.48;1.23;;;14.60;52.40;;;;;;5051869;28;20711;-65
2023/03/28 02:42:33;;;;;;;1.80;1.20;;;14.60;52.40;;;;;;5052415;28;20179;-64
2023/03/28 02:45:17;;;;;;;1.23;0.90;;;14.60;52.40;;;;;;5051545;28;20182;-66
2023/03/28 02:47:49;;;;;;;1.80;1.00;;;14.60;52.40;;;;;;5052811;28;20677;-65
2023/03/28 02:50:18;;;;;;;1.42;0.90;;;14.60;52.40;;;;;;5050990;28;20174;-64
2023/03/28 02:52:52;;;;;;;1.55;1.10;;;14.60;52.40;;;;;;5052453;28;20194;-65
2023/03/28 02:55:24;;;;;;;1.85;1.10;;;14.60;52.50;;;;;;5050875;28;20633;-65
2023/03/28 02:58:07;;;;;;;2.17;0.93;;;14.60;52.40;;;;;;5052448;28;20262;-65
2023/03/28 03:00:32;;;;;;;1.35;1.02;;;14.60;52.50;;;;;;5036997;28;20514;-65
2023/03/28 03:02:58;;;;;;;1.27;1.00;;;14.50;52.40;;;;;;5050329;28;20186;-65
2023/03/28 03:05:23;;;;;;;1.17;1.08;;;14.50;52.50;;;;;;5051549;28;20482;-66
2023/03/28 03:07:49;;;;;;;1.20;1.10;;;14.50;52.40;;;;;;5052285;28;20171;-64
2023/03/28 03:10:15;;;;;;;2.92;0.98;;;14.50;52.40;;;;;;5051799;28;20171;-64
2023/03/28 03:12:41;;;;;;;1.40;1.30;;;14.50;52.50;;;;;;5052359;28;20175;-64
2023/03/28 03:15:07;;;;;;;1.10;1.00;;;14.50;52.50;;;;;;5052169;28;20545;-63
2023/03/28 03:17:33;;;;;;;2.03;1.27;;;14.50;52.50;;;;;;5051674;28;20175;-65
2023/03/28 03:19:58;;;;;;;1.65;1.17;;;14.50;52.50;;;;;;5052002;28;20211;-63
2023/03/28 03:22:24;;;;;;;2.08;1.20;;;14.50;52.60;;;;;;5052328;28;20170;-63
2023/03/28 03:24:50;;;;;;;1.85;0.80;;;14.50;52.50;;;;;;5051416;28;20182;-65
2023/03/28 03:27:18;;;;;;;2.22;1.00;;;14.50;52.60;;;;;;5052342;28;20637;-65
2023/03/28 03:29:44;;;;;;;1.92;1.10;;;14.50;52.50;;;;;;5051881;28;20171;-66
2023/03/28 03:32:10;;;;;;;1.15;1.05;;;14.50;52.50;;;;;;5051569;28;20185;-65
2023/03/28 03:34:36;;;;;;;1.63;1.13;;;14.40;52.50;;;;;;5052067;28;20203;-65
2023/03/28 03:37:03;;;;;;;1.13;1.02;;;14.40;52.50;;;;;;5051898;28;20267;-65
2023/03/28 03:39:28;;;;;;;1.48;1.00;;;14.40;52.50;;;;;;5051216;28;20177;-65
2023/03/28 03:41:55;;;;;;;1.80;1.20;;;14.40;52.50;;;;;;5051687;28;20269;-65
2023/03/28 03:44:21;;;;;;;1.40;1.10;;;14.40;52.50;;;;;;5051310;28;20204;-65
2023/03/28 03:46:46;;;;;;;1.17;1.02;;;14.40;52.60;;;;;;5051968;28;20714;-65
2023/03/28 03:49:12;;;;;;;1.23;1.00;;;15.00;52.90;;;;;;5052135;28;20168;-64
2023/03/28 03:51:38;;;;;;;1.67;1.20;;;14.40;53.20;;;;;;5054926;28;20190;-64
2023/03/28 03:54:04;;;;;;;0.98;0.80;;;14.40;52.60;;;;;;5055717;28;20171;-64
2023/03/28 03:56:30;;;;;;;1.83;1.00;;;14.40;52.60;;;;;;5055906;28;20223;-65
2023/03/28 03:58:55;;;;;;;2.38;1.40;;;14.40;52.60;;;;;;5054740;28;20262;-65
2023/03/28 04:01:24;;;;;;;1.77;0.95;;;14.40;52.60;;;;;;5055648;28;20175;-64
2023/03/28 04:03:50;;;;;;;2.00;1.17;;;14.40;52.70;;;;;;5055608;28;20178;-65
2023/03/28 04:06:16;;;;;;;1.85;1.58;;;14.40;52.70;;;;;;5054842;28;20272;-65
2023/03/28 04:08:41;;;;;;;2.38;1.15;;;14.40;52.60;;;;;;5055231;28;20218;-64
2023/03/28 04:11:09;;;;;;;1.77;1.00;;;14.30;52.70;;;;;;5055465;28;20175;-63
2023/03/28 04:13:35;;;;;;;1.38;1.13;;;14.40;52.70;;;;;;5054688;28;20182;-64
2023/03/28 04:16:00;;;;;;;2.20;1.05;;;14.30;52.60;;;;;;5055211;28;20298;-63
2023/03/28 04:18:28;;;;;;;1.25;1.00;;;14.30;52.70;;;;;;5055463;28;20177;-65
2023/03/28 04:20:55;;;;;;;1.80;1.40;;;14.30;52.80;;;;;;5054234;28;20238;-64
2023/03/28 04:23:24;;;;;;;2.15;1.30;;;14.30;52.70;;;;;;5054148;28;20175;-63
2023/03/28 04:25:54;;;;;;;2.30;1.00;;;14.30;52.80;;;;;;5055055;28;20258;-65
2023/03/28 04:28:23;;;;;;;2.28;1.38;;;14.30;52.70;;;;;;5054459;28;20225;-66
2023/03/28 04:30:56;;;;;;;2.35;1.70;;;14.30;52.80;;;;;;5054968;28;20286;-66
2023/03/28 04:33:24;;;;;;;1.17;1.08;;;14.30;52.80;;;;;;5054918;28;20650;-66
2023/03/28 04:35:58;;;;;;;3.15;1.20;;;14.30;52.70;;;;;;5054000;28;20237;-65
2023/03/28 04:38:27;;;;;;;2.30;1.40;;;14.20;52.70;;;;;;5054986;28;20236;-65
2023/03/28 04:40:56;;;;;;;1.90;1.27;;;14.20;53.30;;;;;;5054089;28;20220;-65
2023/03/28 04:43:25;;;;;;;1.58;1.10;;;14.20;52.70;;;;;;5055014;28;20171;-64
2023/03/28 04:45:52;;;;;;;1.20;1.10;;;14.20;52.80;;;;;;5054554;28;20587;-64
2023/03/28 04:48:17;;;;;;;1.15;1.00;;;14.20;52.70;;;;;;5054127;28;20175;-65
2023/03/28 04:50:43;;;;;;;3.00;1.42;;;14.30;52.70;;;;;;5054635;28;20179;-64
2023/03/28 04:53:08;;;;;;;1.48;1.17;;;14.30;52.50;;;;;;5054552;28;20171;-65
2023/03/28 04:55:34;;;;;;;1.65;1.08;;;14.30;52.50;;;;;;5054024;28;20214;-64
2023/03/28 04:57:59;;;;;;;2.83;1.27;;;14.40;52.30;;;;;;5054259;28;20225;-65
2023/03/28 05:00:26;;;;;;;2.00;1.02;;;14.40;52.10;;;;;;5054369;28;20175;-65
2023/03/28 05:02:55;;;;;;;1.88;1.10;;;14.50;52.00;;;;;;5052518;28;20393;-65
2023/03/28 05:05:20;;;;;;;1.70;0.90;;;14.60;52.40;;;;;;5053981;28;20172;-66
2023/03/28 05:07:46;;;;;;;2.15;1.08;;;14.60;51.70;;;;;;5053697;28;20190;-65
2023/03/28 05:10:11;;;;;;;2.33;1.35;;;14.70;51.70;;;;;;5053461;28;20513;-64
2023/03/28 05:12:37;;;;;;;3.25;1.42;;;14.90;51.60;;;;;;5054060;28;20175;-64
2023/03/28 05:15:04;;;;;;;1.10;1.00;;;15.10;51.40;;;;;;5053696;28;20289;-64
2023/03/28 05:17:30;;;;;;;1.55;1.00;;;15.30;51.10;;;;;;5053256;28;20179;-64
2023/03/28 05:19:55;;;;;;;2.10;1.20;;;15.40;50.90;;;;;;5053202;28;20253;-64
2023/03/28 05:22:21;;;;;;;1.88;1.10;;;15.60;50.60;;;;;;5053789;28;20186;-63
2023/03/28 05:24:46;;;;;;;1.08;0.98;;;15.80;50.50;;;;;;5052857;28;20171;-64
2023/03/28 05:27:12;;;;;;;1.67;1.10;;;15.90;50.20;;;;;;5053600;28;20626;-64
2023/03/28 05:29:38;;;;;;;1.20;0.90;;;16.00;50.10;;;;;;5053491;28;20175;-66
2023/03/28 05:32:04;;;;;;;0.93;0.82;;;16.10;50.00;;;;;;5052468;28;20174;-66
2023/03/28 05:34:29;;;;;;;1.27;0.90;;;16.10;50.00;;;;;;5053425;28;20638;-66
2023/03/28 05:36:58;;;;;;;1.63;0.80;;;16.20;49.90;;;;;;5052353;28;20172;-65
2023/03/28 05:39:23;;;;;;;1.45;0.85;;;16.20;49.80;;;;;;5053650;28;20175;-64
2023/03/28 05:41:49;;;;;;;1.45;1.00;;;16.20;49.90;;;;;;5053044;28;20245;-65
2023/03/28 05:44:14;;;;;;;1.77;1.13;;;16.20;49.80;;;;;;5053022;28;20167;-64
2023/03/28 05:46:40;;;;;;;2.00;0.88;;;16.30;49.90;;;;;;5053845;28;20168;-66
2023/03/28 05:49:06;;;;;;;2.28;1.20;;;16.30;49.90;;;;;;5053368;28;20587;-65
2023/03/28 05:51:31;;;;;;;1.38;1.05;;;16.20;50.60;;;;;;5052826;28;20175;-64
2023/03/28 05:53:57;;;;;;;2.50;1.15;;;16.30;50.00;;;;;;5053530;28;20270;-64
2023/03/28 05:56:23;;;;;;;1.13;0.90;;;16.30;50.00;;;;;;5053477;28;20217;-65
2023/03/28 05:58:48;;;;;;;1.80;1.15;;;16.30;50.30;;;;;;5052370;28;20181;-66
2023/03/28 06:01:16;;;;;;;1.35;1.00;;;16.40;50.00;;;;;;5053434;28;20217;-66
2023/03/28 06:03:44;;;;;;;1.45;1.20;;;16.50;49.90;;;;;;5053141;28;20186;-66
2023/03/28 06:06:09;;;;;;;1.65;0.93;;;16.70;49.60;;;;;;5052618;28;20174;-65
2023/03/28 06:08:35;;;;;;;1.48;1.15;;;16.90;49.30;;;;;;5053521;28;20183;-65
2023/03/28 06:11:01;;;;;;;1.63;0.98;;;17.10;49.00;;;;;;5053191;28;20546;-64
2023/03/28 06:13:27;;;;;;;2.20;1.10;;;17.20;48.70;;;;;;5051575;28;20265;-65
2023/03/28 06:15:52;;;;;;;1.92;0.90;;;17.30;48.70;;;;;;5052835;28;20666;-64
2023/03/28 06:18:18;;;;;;;1.58;0.95;;;17.10;48.80;;;;;;5053122;28;20176;-65
2023/03/28 06:20:43;;;;;;;1.95;1.20;;;17.10;48.90;;;;;;5051853;28;20713;-64
2023/03/28 06:23:09;;;;;;;1.30;1.00;;;17.00;49.10;;;;;;5052870;28;20609;-64
2023/03/28 06:25:35;;;;;;;2.22;1.15;;;17.00;49.20;;;;;;5053168;28;20187;-64
2023/03/28 06:28:01;;;;;;;3.35;1.20;;;17.10;49.10;;;;;;5052277;28;21050;-64
2023/03/28 06:30:26;;;;;;;1.70;1.20;;;17.20;49.00;;;;;;5052821;28;20186;-67
2023/03/28 06:32:52;;;;;;;2.35;1.17;;;17.40;48.80;;;;;;5052607;28;20171;-67
2023/03/28 06:35:17;;;;;;;1.40;1.02;;;17.50;48.70;;;;;;5051959;28;20297;-65
2023/03/28 06:37:43;;;;;;;2.47;1.23;;;17.50;48.80;;;;;;5052469;28;20317;-65
2023/03/28 06:40:08;;;;;;;1.88;1.10;;;17.50;49.00;;;;;;5052321;28;20237;-64
2023/03/28 06:42:34;;;;;;;1.90;1.00;;;17.50;49.10;;;;;;5052729;28;20638;-66
2023/03/28 06:45:00;;;;;;;1.48;1.13;;;17.60;49.10;;;;;;5052349;28;20555;-65
2023/03/28 06:47:25;;;;;;;2.95;1.20;;;17.50;49.30;;;;;;5051955;28;20183;-64
2023/03/28 06:49:51;;;;;;;2.58;1.13;;;17.50;49.40;;;;;;5052101;28;20167;-64
2023/03/28 06:52:17;;;;;;;3.15;1.40;;;17.50;49.50;;;;;;5052674;28;20514;-60
2023/03/28 06:54:42;;;;;;;2.33;1.33;;;17.50;49.60;;;;;;5051586;28;20202;-60
2023/03/28 06:57:08;;;;;;;2.65;1.20;;;17.50;49.80;;;;;;5052493;28;20676;-60
2023/03/28 06:59:33;;;;;;;2.30;1.33;;;17.60;50.00;;;;;;5052782;28;20250;-61
2023/03/28 07:01:59;;;;;;;2.90;1.42;;;17.60;50.10;;;;;;5051736;28;20634;-62
2023/03/28 07:04:24;;;;;;;3.75;1.30;;;17.60;50.00;;;;;;5052608;28;20631;-61
2023/03/28 07:06:50;;;;;;;3.20;1.48;;;17.60;50.20;;;;;;5052477;28;20179;-59
2023/03/28 07:09:15;;;;;;;2.13;1.42;;;17.50;50.40;;;;;;5051720;28;20183;-59
2023/03/28 07:11:41;;;;;;;4.45;1.48;;;17.50;50.40;;;;;;5052532;28;20626;-59
2023/03/28 07:14:06;;;;;;;2.78;1.38;;;17.40;50.70;;;;;;5052536;28;20183;-59
2023/03/28 07:16:32;;;;;;;2.15;1.00;;;17.30;51.00;;;;;;5051665;28;20611;-60
2023/03/28 07:18:57;;;;;;;1.40;1.13;;;17.20;51.20;;;;;;5052161;28;20645;-60
2023/03/28 07:21:23;;;;;;;3.08;1.70;;;17.00;51.00;;;;;;5052175;28;20380;-60
2023/03/28 07:23:48;;;;;;;4.95;1.60;;;17.00;51.50;;;;;;5051428;28;20649;-60
2023/03/28 07:26:14;;;;;;;2.55;1.40;;;16.90;51.50;;;;;;5052058;28;20171;-60
2023/03/28 07:28:40;;;;;;;4.13;1.65;;;16.80;51.50;;;;;;5052641;28;20179;-61
2023/03/28 07:31:06;;;;;;;4.00;1.55;;;16.80;51.70;;;;;;5051292;28;20205;-61
2023/03/28 07:33:32;;;;;;;3.90;1.67;;;16.70;51.60;;;;;;5052283;28;20175;-62
2023/03/28 07:35:59;;;;;;;2.10;1.40;;;16.60;51.90;;;;;;5052181;28;20219;-61
2023/03/28 07:38:25;;;;;;;2.60;1.20;;;16.60;51.90;;;;;;5051855;28;20250;-60
2023/03/28 07:40:50;;;;;;;2.75;1.30;;;16.60;52.10;;;;;;5051675;28;20211;-60
2023/03/28 07:43:16;;;;;;;2.72;1.60;;;16.40;52.10;;;;;;5052207;28;20179;-61
2023/03/28 07:45:41;;;;;;;2.00;1.00;;;16.40;52.20;;;;;;5051278;28;20167;-61
2023/03/28 07:48:07;;;;;;;4.25;1.50;;;16.30;52.40;;;;;;5052335;28;20173;-61
2023/03/28 07:50:32;;;;;;;2.67;1.67;;;16.30;52.50;;;;;;5051724;28;20183;-60
2023/03/28 07:52:59;;;;;;;3.28;1.40;;;16.30;52.50;;;;;;5051883;28;20630;-60
2023/03/28 07:55:25;;;;;;;2.30;1.00;;;16.20;52.60;;;;;;5052229;28;20227;-61
2023/03/28 07:57:51;;;;;;;2.00;1.10;;;16.20;52.80;;;;;;5051225;28;20175;-61
2023/03/28 08:00:17;;;;;;;1.83;1.48;;;16.20;52.70;;;;;;5052001;28;20630;-61
2023/03/28 08:02:42;;;;;;;3.35;1.73;;;16.20;52.70;;;;;;5051768;28;20182;-61
2023/03/28 08:05:08;;;;;;;1.98;1.40;;;16.20;52.70;;;;;;5051279;28;20638;-61
2023/03/28 08:07:34;;;;;;;2.75;1.38;;;16.20;52.70;;;;;;5052075;28;20175;-60
2023/03/28 08:09:59;;;;;;;2.38;1.25;;;16.20;52.70;;;;;;5051872;28;20204;-60
2023/03/28 08:12:26;;;;;;;1.75;1.35;;;16.20;52.70;;;;;;5051332;28;20182;-60
2023/03/28 08:14:51;;;;;;;1.98;1.15;;;16.20;52.70;;;;;;5051701;28;20198;-60
2023/03/28 08:17:17;;;;;;;2.10;1.25;;;16.20;52.60;;;;;;5052031;28;20175;-60
2023/03/28 08:19:43;;;;;;;1.70;1.30;;;16.30;52.60;;;;;;5050937;28;20532;-60
2023/03/28 08:22:10;;;;;;;1.92;1.20;;;16.20;52.60;;;;;;5052043;28;20206;-60
2023/03/28 08:24:36;;;;;;;2.10;1.42;;;16.20;52.60;;;;;;5051796;28;20346;-60
2023/03/28 08:27:02;;;;;;;1.98;1.17;;;16.20;52.70;;;;;;5050973;28;20183;-60
2023/03/28 08:29:28;;;;;;;1.45;1.20;;;16.20;52.70;;;;;;5051890;28;20180;-60
2023/03/28 08:31:53;;;;;;;2.33;1.13;;;16.20;52.70;;;;;;5051593;28;20638;-61
2023/03/28 08:34:19;;;;;;;3.33;1.38;;;16.20;52.70;;;;;;5051285;28;20213;-61
2023/03/28 08:36:44;;;;;;;2.03;1.40;;;16.20;52.70;;;;;;5051909;28;20211;-60
2023/03/28 08:39:10;;;;;;;2.45;1.10;;;16.20;52.70;;;;;;5055564;28;20213;-61
2023/03/28 08:42:10;;;;;;;2.30;1.35;;;16.20;52.70;;;;;;5054651;28;20587;-61
2023/03/28 08:45:03;;;;;;;1.15;1.08;;;16.20;52.70;;;;;;5039110;28;20233;-60
2023/03/28 08:47:30;;;;;;;2.83;1.48;;;16.20;52.90;;;;;;5054598;28;20274;-61
2023/03/28 08:50:22;;;;;;;1.65;1.35;;;16.20;52.80;;;;;;5054917;28;20190;-60
2023/03/28 08:52:48;;;;;;;2.42;1.25;;;16.20;52.90;;;;;;5053334;28;20179;-61
2023/03/28 08:55:30;;;;;;;3.28;1.27;;;16.20;52.90;;;;;;5036531;28;20207;-61
2023/03/28 08:57:56;;;;;;;1.30;1.10;;;16.20;53.00;;;;;;5053563;28;20198;-61
2023/03/28 09:00:35;;;;;;;2.72;1.75;;;16.20;52.90;;;;;;5054867;28;20221;-61
2023/03/28 09:03:01;;;;;;;2.67;1.35;;;16.10;52.90;;;;;;5036641;28;21059;-61
2023/03/28 09:05:42;;;;;;;0.95;0.95;;;16.10;52.90;;;;;;5054710;28;20274;-60
2023/03/28 09:08:25;;;;;;;2.55;1.00;;;16.10;52.90;;;;;;5037739;28;20956;-60
2023/03/28 09:10:59;;;;;;;3.03;1.30;;;16.00;52.90;;;;;;5052989;28;20657;-72
2023/03/28 09:14:03;;;;;;;1.60;1.10;;;16.00;53.00;;;;;;5053078;28;20262;-65
2023/03/28 09:16:52;;;;;;;3.85;1.33;;;16.10;53.00;;;;;;5053753;28;20210;-64
2023/03/28 09:20:10;;;;;;;2.03;1.30;;;16.10;52.90;;;;;;5054419;28;20182;-64
2023/03/28 09:22:59;;;;;;;1.75;1.45;;;16.10;52.90;;;;;;5053758;28;20187;-63
2023/03/28 09:25:46;;;;;;;2.33;1.30;;;16.10;52.80;;;;;;5054299;28;20175;-66
2023/03/28 09:28:37;;;;;;;2.10;1.13;;;16.10;52.90;;;;;;5036957;28;20545;-66
2023/03/28 09:31:04;;;;;;;2.13;1.33;;;16.20;53.00;;;;;;5052290;28;20171;-67
2023/03/28 09:33:35;;;;;;;3.15;1.50;;;16.20;53.00;;;;;;5052952;28;20210;-66
2023/03/28 09:36:01;;;;;;;3.40;1.05;;;16.20;53.00;;;;;;5052917;28;20214;-65
2023/03/28 09:38:48;;;;;;;1.67;1.10;;;16.20;53.00;;;;;;5052701;28;20175;-65
2023/03/28 09:41:18;;;;;;;1.40;1.05;;;16.20;53.10;;;;;;5052508;28;20182;-66
2023/03/28 09:43:49;;;;;;;2.00;1.17;;;16.20;53.10;;;;;;5051622;28;20201;-67
2023/03/28 09:46:33;;;;;;;3.00;1.10;;;16.30;52.70;;;;;;5035959;28;20175;-66
2023/03/28 09:48:59;;;;;;;2.75;1.10;;;16.40;52.60;;;;;;5037321;28;20645;-68
2023/03/28 09:51:24;;;;;;;2.53;1.20;;;16.40;52.50;;;;;;5051932;28;20186;-68
2023/03/28 09:53:50;;;;;;;2.72;1.17;;;16.40;52.50;;;;;;5053335;28;20175;-62
2023/03/28 09:56:27;;;;;;;3.70;1.45;;;16.40;52.60;;;;;;5053568;28;20306;-62
2023/03/28 09:58:57;;;;;;;2.33;1.20;;;16.40;52.40;;;;;;5034837;28;20186;-62
2023/03/28 10:01:31;;;;;;;1.92;1.15;;;16.60;52.60;;;;;;5052176;28;20255;-62
2023/03/28 10:03:56;;;;;;;2.10;1.50;;;16.50;52.40;;;;;;5051807;28;20729;-61
2023/03/28 10:06:27;;;;;;;3.17;1.20;;;16.60;52.30;;;;;;5051515;28;20254;-66
2023/03/28 10:09:07;;;;;;;1.67;1.13;;;16.60;52.20;;;;;;5053050;28;20186;-65
2023/03/28 10:11:36;;;;;;;2.47;0.93;;;16.70;52.20;;;;;;5052826;28;20585;-62
2023/03/28 10:14:04;;;;;;;3.00;1.20;;;16.70;52.20;;;;;;5035563;28;20182;-62
2023/03/28 10:16:31;;;;;;;2.80;1.63;;;16.70;52.10;;;;;;5053087;28;20239;-61
2023/03/28 10:18:56;;;;;;;3.40;1.20;;;16.70;52.10;;;;;;5050217;28;20180;-62
2023/03/28 10:21:26;;;;;;;1.55;1.27;;;16.60;52.20;;;;;;5051277;28;20291;-61
2023/03/28 10:23:58;;;;;;;2.55;1.05;;;16.60;52.20;;;;;;5052388;28;20172;-61
2023/03/28 10:26:25;;;;;;;1.17;0.80;;;16.70;52.30;;;;;;5051445;28;20759;-61
2023/03/28 10:28:53;;;;;;;1.42;1.00;;;16.60;52.30;;;;;;5051886;28;20197;-62
2023/03/28 10:31:28;;;;;;;0.75;0.73;;;16.60;52.30;;;;;;5052475;28;20605;-62
2023/03/28 10:33:54;;;;;;;1.67;1.20;;;16.70;52.30;;;;;;5049691;28;20253;-66
2023/03/28 10:36:30;;;;;;;3.00;1.20;;;16.70;52.20;;;;;;5050665;28;20211;-65
2023/03/28 10:38:55;;;;;;;2.58;1.10;;;16.70;52.20;;;;;;5051463;28;20177;-64
2023/03/28 10:41:27;;;;;;;6.43;1.65;;;16.70;52.20;;;;;;5051404;28;20262;-62
2023/03/28 10:43:53;;;;;;;2.40;1.10;;;16.60;52.30;;;;;;5051958;28;20190;-62
2023/03/28 10:46:25;;;;;;;2.45;1.38;;;16.70;52.40;;;;;;5049991;28;20183;-63
2023/03/28 10:48:56;;;;;;;1.52;0.90;;;16.70;52.20;;;;;;5052027;28;20592;-61
2023/03/28 10:51:22;;;;;;;4.45;1.40;;;16.70;52.20;;;;;;5035505;28;20175;-61
2023/03/28 10:53:57;;;;;;;1.60;1.10;;;16.70;52.20;;;;;;5034070;28;20252;-61
2023/03/28 10:56:40;;;;;;;1.45;1.00;;;16.70;52.20;;;;;;5052416;28;20747;-61
2023/03/28 10:59:23;;;;;;;1.55;1.00;;;16.70;52.20;;;;;;5051997;28;20250;-61
2023/03/28 11:01:53;;;;;;;1.08;0.80;;;16.80;52.20;;;;;;5051282;28;20175;-61
2023/03/28 11:04:40;;;;;;;1.02;0.90;;;16.80;52.20;;;;;;5051161;28;20171;-61
2023/03/28 11:07:14;;;;;;;2.33;1.00;;;16.80;52.20;;;;;;5051004;28;20633;-63
2023/03/28 11:09:48;;;;;;;3.35;1.05;;;16.80;52.20;;;;;;5050453;28;20190;-63
2023/03/28 11:12:39;;;;;;;3.75;1.27;;;16.70;52.20;;;;;;5050785;28;20510;-62
2023/03/28 11:15:31;;;;;;;3.13;1.60;;;16.70;52.20;;;;;;5051296;28;20195;-63
2023/03/28 11:18:09;;;;;;;2.47;1.10;;;16.70;52.20;;;;;;5050658;28;20182;-62
2023/03/28 11:20:45;;;;;;;3.92;1.15;;;16.60;52.10;;;;;;5053870;28;20601;-62
2023/03/28 11:23:42;;;;;;;3.58;1.40;;;16.60;52.10;;;;;;5049820;28;20502;-62
2023/03/28 11:26:26;;;;;;;2.90;1.20;;;16.60;52.20;;;;;;5052380;28;20211;-62
2023/03/28 11:29:12;;;;;;;2.10;1.02;;;16.60;52.20;;;;;;5052311;28;20257;-64
2023/03/28 11:32:03;;;;;;;1.83;1.10;;;16.50;52.10;;;;;;5051573;28;20269;-65
2023/03/28 11:34:30;;;;;;;1.73;1.13;;;16.50;52.30;;;;;;5051021;28;20229;-64
2023/03/28 11:37:33;;;;;;;1.80;1.13;;;16.50;52.20;;;;;;5066711;28;20214;-63
2023/03/28 11:40:00;;;;;;;2.47;0.90;;;16.50;52.20;;;;;;5071967;28;20210;-63
2023/03/28 11:42:44;;;;;;;2.83;1.00;;;16.50;52.40;;;;;;5072287;28;20182;-63
2023/03/28 11:45:33;;;;;;;1.80;1.05;;;16.50;52.30;;;;;;5071101;28;20198;-64
2023/03/28 11:48:18;;;;;;;3.92;1.13;;;16.50;52.30;;;;;;5070404;28;20186;-66
2023/03/28 11:51:04;;;;;;;2.10;1.17;;;16.50;52.30;;;;;;5069861;28;20528;-67
2023/03/28 11:53:31;;;;;;;3.20;1.15;;;16.50;52.30;;;;;;5059667;28;20182;-67
2023/03/28 11:56:29;;;;;;;3.22;1.13;;;16.50;52.30;;;;;;5050262;28;20226;-66
2023/03/28 11:59:01;;;;;;;9.20;1.35;;;16.50;52.30;;;;;;5036229;28;20175;-67
2023/03/28 12:01:28;;;;;;;1.60;1.00;;;16.50;52.30;;;;;;5050990;28;20190;-68
2023/03/28 12:04:26;;;;;;;2.00;1.13;;;16.50;52.30;;;;;;5049717;28;20176;-67
2023/03/28 12:07:19;;;;;;;3.65;1.17;;;16.50;52.20;;;;;;5050527;28;20628;-67
2023/03/28 12:10:07;;;;;;;2.25;1.10;;;16.60;52.10;;;;;;5051634;28;20194;-66
2023/03/28 12:12:50;;;;;;;5.00;1.15;;;16.60;52.00;;;;;;5053291;28;20576;-66
2023/03/28 12:15:20;;;;;;;2.53;0.80;;;16.60;51.90;;;;;;5040005;28;20550;-66
2023/03/28 12:17:46;;;;;;;3.53;1.40;;;16.60;51.90;;;;;;5053701;28;20179;-66
2023/03/28 12:20:58;;;;;;;1.20;0.98;;;16.60;51.80;;;;;;5037670;28;20643;-66
2023/03/28 12:23:36;;;;;;;2.50;1.25;;;16.60;51.90;;;;;;5038521;28;20183;-65
2023/03/28 12:26:20;;;;;;;2.13;1.02;;;16.60;51.80;;;;;;5038338;28;20186;-65
2023/03/28 12:28:49;;;;;;;2.15;0.85;;;16.50;51.80;;;;;;5019350;28;20218;-68
2023/03/28 12:31:23;;;;;;;1.35;0.90;;;16.50;51.80;;;;;;5034204;28;20171;-67
2023/03/28 12:33:57;;;;;;;3.17;0.93;;;16.50;51.80;;;;;;5033091;28;20647;-68
2023/03/28 12:36:43;;;;;;;2.03;1.10;;;16.50;51.70;;;;;;5035424;28;20233;-67
2023/03/28 12:39:33;;;;;;;2.13;0.90;;;16.50;51.70;;;;;;5033607;28;20218;-66
2023/03/28 12:42:03;;;;;;;2.38;1.20;;;16.50;51.80;;;;;;5034887;28;20187;-66
2023/03/28 12:44:38;;;;;;;1.23;0.90;;;16.50;51.80;;;;;;5035389;28;20171;-68
2023/03/28 12:47:12;;;;;;;1.23;1.10;;;16.50;51.70;;;;;;5033136;28;20179;-67
2023/03/28 12:49:40;;;;;;;1.00;0.90;;;16.50;51.80;;;;;;5034200;28;20179;-66
2023/03/28 12:52:08;;;;;;;1.48;1.20;;;16.50;51.80;;;;;;5033875;28;20263;-65
2023/03/28 12:54:38;;;;;;;1.77;0.82;;;16.50;51.80;;;;;;5032967;28;20192;-67
2023/03/28 12:57:06;;;;;;;2.95;1.00;;;16.50;51.80;;;;;;5033351;28;20191;-66
2023/03/28 12:59:47;;;;;;;1.38;1.10;;;16.40;51.70;;;;;;5035225;28;20179;-67
2023/03/28 13:02:30;;;;;;;1.05;0.90;;;16.40;51.70;;;;;;5033053;28;20210;-67
2023/03/28 13:05:19;;;;;;;6.57;1.30;;;16.40;51.60;;;;;;5033393;28;20172;-66
2023/03/28 13:08:01;;;;;;;2.38;0.98;;;16.40;51.60;;;;;;5033814;28;20202;-67
2023/03/28 13:10:54;;;;;;;1.58;0.95;;;16.40;51.70;;;;;;5033580;28;20346;-66